Wetterdaten: Woche 28.04.03 - 04.05.03 (KW18)
Datum Zeit Temperatur Luftfeuchte Luftdruck Regenmenge Wind Richtung Taupunkt Windchill
28.04.2003 00:00 9.5 C 78 % 1015.9 hPa 0.0 l/m 0.0 km/h (0 Bft) N 5.9 C 9.5 C
28.04.2003 01:00 8.1 C 86 % 1015.9 hPa 0.0 l/m 3.5 km/h (1 Bft) O-SO 5.9 C 7.5 C
28.04.2003 02:00 6.6 C 95 % 1015.2 hPa 0.0 l/m 0.0 km/h (0 Bft) N 5.9 C 6.6 C
28.04.2003 03:00 6.1 C 99 % 1014.8 hPa 0.0 l/m 0.0 km/h (0 Bft) N 6.0 C 6.1 C
28.04.2003 04:00 5.7 C 99 % 1014.7 hPa 0.0 l/m 0.0 km/h (0 Bft) N 5.6 C 5.7 C
28.04.2003 05:00 5.3 C 100 % 1014.8 hPa 0.0 l/m 0.0 km/h (0 Bft) N 5.3 C 5.3 C
28.04.2003 06:00 5.2 C 100 % 1014.4 hPa 0.0 l/m 0.0 km/h (0 Bft) N 5.2 C 5.2 C
28.04.2003 07:00 6.2 C 99 % 1014.7 hPa 0.0 l/m 0.0 km/h (0 Bft) N 6.1 C 6.2 C
28.04.2003 08:00 8.6 C 85 % 1014.2 hPa 0.0 l/m 0.0 km/h (0 Bft) N 6.2 C 8.6 C
28.04.2003 09:00 11.0 C 71 % 1013.8 hPa 0.0 l/m 0.5 km/h (0 Bft) SO 5.9 C 11.0 C
28.04.2003 10:00 13.0 C 64 % 1013.5 hPa 0.0 l/m 0.1 km/h (0 Bft) N 6.3 C 13.0 C
28.04.2003 11:00 16.1 C 53 % 1012.8 hPa 0.0 l/m 0.7 km/h (0 Bft) O 6.6 C 16.1 C
28.04.2003 12:00 19.4 C 44 % 1011.8 hPa 0.0 l/m 2.6 km/h (1 Bft) O-SO 6.6 C 19.4 C
28.04.2003 13:00 21.9 C 37 % 1010.7 hPa 0.0 l/m 8.6 km/h (2 Bft) O-SO 6.7 C 21.9 C
28.04.2003 14:00 23.9 C 30 % 1010.5 hPa 0.0 l/m 8.2 km/h (2 Bft) SO 5.2 C 23.9 C
28.04.2003 15:00 24.2 C 27 % 1009.6 hPa 0.0 l/m 8.7 km/h (2 Bft) S-SO 3.8 C 24.2 C
28.04.2003 16:00 24.8 C 25 % 1009.6 hPa 0.0 l/m 17.0 km/h (3 Bft) S 3.6 C 24.8 C
28.04.2003 17:00 23.7 C 26 % 1009.5 hPa 0.0 l/m 21.0 km/h (4 Bft) S-SO 3.1 C 23.7 C
28.04.2003 18:00 22.3 C 30 % 1008.9 hPa 0.0 l/m 14.4 km/h (3 Bft) SO 3.9 C 22.3 C
28.04.2003 19:00 20.7 C 35 % 1008.6 hPa 0.0 l/m 8.2 km/h (2 Bft) SO 4.6 C 20.7 C
28.04.2003 20:00 19.2 C 41 % 1009.0 hPa 0.0 l/m 6.8 km/h (2 Bft) SO 5.4 C 19.2 C
28.04.2003 21:00 17.1 C 49 % 1009.6 hPa 0.0 l/m 5.8 km/h (2 Bft) O-SO 6.3 C 17.1 C
28.04.2003 22:00 15.0 C 55 % 1009.6 hPa 0.0 l/m 8.4 km/h (2 Bft) O-SO 5.9 C 15.0 C
28.04.2003 23:00 12.8 C 68 % 1009.6 hPa 0.0 l/m 6.5 km/h (2 Bft) O-SO 7.2 C 12.8 C
29.04.2003 00:00 12.0 C 74 % 1009.6 hPa 0.0 l/m 1.1 km/h (0 Bft) O 7.4 C 12.0 C
29.04.2003 01:00 11.0 C 78 % 1009.8 hPa 0.0 l/m 0.9 km/h (0 Bft) O-SO 7.2 C 11.0 C
29.04.2003 02:00 10.2 C 86 % 1009.9 hPa 0.0 l/m 0.9 km/h (0 Bft) O-SO 7.9 C 10.2 C
29.04.2003 03:00 10.5 C 94 % 1011.0 hPa 0.0 l/m 2.0 km/h (1 Bft) O-SO 9.5 C 10.5 C
29.04.2003 04:00 10.9 C 92 % 1011.7 hPa 0.0 l/m 7.5 km/h (2 Bft) O-SO 9.6 C 10.9 C
29.04.2003 05:00 11.7 C 88 % 1013.2 hPa 0.0 l/m 4.8 km/h (1 Bft) SO 9.7 C 11.7 C
29.04.2003 06:00 12.0 C 92 % 1014.6 hPa 0.6 l/m 5.0 km/h (1 Bft) SO 10.6 C 12.0 C
29.04.2003 07:00 12.7 C 88 % 1015.4 hPa 0.0 l/m 3.6 km/h (1 Bft) O-SO 10.8 C 12.7 C
29.04.2003 08:00 12.5 C 95 % 1016.1 hPa 1.2 l/m 0.5 km/h (0 Bft) SO 11.7 C 12.5 C
29.04.2003 09:00 12.5 C 99 % 1017.2 hPa 1.8 l/m 0.6 km/h (0 Bft) O-SO 12.3 C 12.5 C
29.04.2003 10:00 13.4 C 97 % 1018.0 hPa 0.0 l/m 0.0 km/h (0 Bft) N 12.9 C 13.4 C
29.04.2003 11:00 14.6 C 83 % 1018.0 hPa 0.0 l/m 1.9 km/h (1 Bft) W-NW 11.7 C 14.6 C
29.04.2003 12:00 15.1 C 74 % 1018.0 hPa 0.0 l/m 1.3 km/h (1 Bft) NW 10.5 C 15.1 C
29.04.2003 13:00 17.1 C 65 % 1018.1 hPa 0.0 l/m 0.7 km/h (0 Bft) O-SO 10.4 C 17.1 C
29.04.2003 14:00 19.0 C 52 % 1018.0 hPa 0.0 l/m 1.8 km/h (1 Bft) W 8.9 C 19.0 C
29.04.2003 15:00 21.1 C 48 % 1017.2 hPa 0.0 l/m 1.7 km/h (1 Bft) O-SO 9.7 C 21.1 C
29.04.2003 16:00 21.7 C 46 % 1016.2 hPa 0.0 l/m 2.7 km/h (1 Bft) O-SO 9.6 C 21.7 C
29.04.2003 17:00 22.0 C 42 % 1015.9 hPa 0.0 l/m 0.1 km/h (0 Bft) O-SO 8.6 C 22.0 C
29.04.2003 18:00 20.3 C 51 % 1015.8 hPa 0.0 l/m 1.9 km/h (1 Bft) O-SO 9.8 C 20.3 C
29.04.2003 19:00 18.9 C 60 % 1014.8 hPa 0.0 l/m 5.4 km/h (1 Bft) O-SO 10.8 C 18.9 C
29.04.2003 20:00 16.7 C 65 % 1015.4 hPa 0.0 l/m 5.5 km/h (1 Bft) O-SO 10.0 C 16.7 C
29.04.2003 21:00 14.6 C 77 % 1015.9 hPa 0.0 l/m 2.0 km/h (1 Bft) O-SO 10.5 C 14.6 C
29.04.2003 22:00 13.7 C 83 % 1015.9 hPa 0.0 l/m 1.0 km/h (0 Bft) O-SO 10.9 C 13.7 C
29.04.2003 23:00 13.2 C 91 % 1015.9 hPa 0.0 l/m 0.2 km/h (0 Bft) N 11.7 C 13.2 C
30.04.2003 00:00 12.7 C 89 % 1015.6 hPa 0.0 l/m 0.0 km/h (0 Bft) N 11.0 C 12.7 C
30.04.2003 01:00 12.0 C 93 % 1014.8 hPa 0.0 l/m 0.1 km/h (0 Bft) O 11.0 C 12.0 C
30.04.2003 02:00 11.3 C 95 % 1014.6 hPa 0.0 l/m 2.8 km/h (1 Bft) O 10.6 C 11.3 C
30.04.2003 03:00 10.9 C 99 % 1013.8 hPa 0.0 l/m 5.1 km/h (1 Bft) O-SO 10.8 C 10.9 C
30.04.2003 04:00 10.6 C 100 % 1013.8 hPa 0.0 l/m 0.1 km/h (0 Bft) N 10.6 C 10.6 C
30.04.2003 05:00 10.6 C 99 % 1013.8 hPa 0.0 l/m 0.8 km/h (0 Bft) O 10.5 C 10.6 C
30.04.2003 06:00 10.9 C 99 % 1013.8 hPa 0.0 l/m 2.4 km/h (1 Bft) O-SO 10.8 C 10.9 C
30.04.2003 07:00 11.4 C 98 % 1013.8 hPa 0.0 l/m 0.7 km/h (0 Bft) O 11.1 C 11.4 C
30.04.2003 08:00 11.8 C 98 % 1013.8 hPa 0.3 l/m 0.1 km/h (0 Bft) N 11.5 C 11.8 C
30.04.2003 09:00 11.9 C 97 % 1012.9 hPa 0.0 l/m 0.3 km/h (0 Bft) W-NW 11.5 C 11.9 C
30.04.2003 10:00 13.4 C 93 % 1012.0 hPa 0.0 l/m 0.1 km/h (0 Bft) W-NW 12.2 C 13.4 C
30.04.2003 11:00 14.4 C 85 % 1012.5 hPa 0.0 l/m 1.5 km/h (1 Bft) NW 11.9 C 14.4 C
30.04.2003 12:00 15.0 C 87 % 1013.9 hPa 0.6 l/m 0.7 km/h (0 Bft) O-SO 12.9 C 15.0 C
30.04.2003 13:00 14.4 C 95 % 1013.5 hPa 2.1 l/m 14.4 km/h (3 Bft) SO 13.6 C 14.4 C
30.04.2003 14:00 14.7 C 90 % 1012.9 hPa 0.0 l/m 5.2 km/h (1 Bft) O-SO 13.0 C 14.7 C
30.04.2003 15:00 15.1 C 91 % 1012.8 hPa 0.0 l/m 3.7 km/h (1 Bft) W-NW 13.7 C 15.1 C
30.04.2003 16:00 14.5 C 83 % 1014.1 hPa 0.3 l/m 30.1 km/h (5 Bft) NW 11.6 C 14.5 C
30.04.2003 17:00 12.7 C 96 % 1014.9 hPa 0.6 l/m 26.2 km/h (4 Bft) NW 12.1 C 12.7 C
30.04.2003 18:00 12.1 C 96 % 1015.9 hPa 1.2 l/m 3.5 km/h (1 Bft) W-NW 11.4 C 12.1 C
30.04.2003 19:00 11.5 C 100 % 1016.6 hPa 2.4 l/m 1.6 km/h (1 Bft) SO 11.5 C 11.5 C
30.04.2003 20:00 11.2 C 100 % 1018.2 hPa 2.4 l/m 0.7 km/h (0 Bft) O 11.2 C 11.2 C
30.04.2003 21:00 11.2 C 100 % 1019.6 hPa 0.9 l/m 5.6 km/h (1 Bft) SO 11.2 C 11.2 C
30.04.2003 22:00 11.0 C 100 % 1021.1 hPa 0.0 l/m 3.0 km/h (1 Bft) SO 11.0 C 11.0 C
30.04.2003 23:00 10.6 C 100 % 1022.0 hPa 0.0 l/m 8.9 km/h (2 Bft) W 10.6 C 10.6 C
01.05.2003 00:00 10.1 C 100 % 1022.9 hPa 0.0 l/m 4.8 km/h (1 Bft) SO 10.1 C 9.8 C
01.05.2003 01:00 10.1 C 98 % 1023.2 hPa 0.0 l/m 2.1 km/h (1 Bft) S-SO 9.8 C 9.9 C
01.05.2003 02:00 8.7 C 100 % 1023.2 hPa 0.0 l/m 0.4 km/h (0 Bft) O-SO 8.6 C 8.7 C
01.05.2003 03:00 7.7 C 100 % 1023.2 hPa 0.0 l/m 3.5 km/h (1 Bft) O-SO 7.7 C 7.2 C
01.05.2003 04:00 6.7 C 100 % 1023.2 hPa 0.0 l/m 3.4 km/h (1 Bft) O-SO 6.7 C 6.3 C
01.05.2003 05:00 5.7 C 100 % 1023.3 hPa 0.0 l/m 1.0 km/h (0 Bft) SO 5.7 C 5.6 C
01.05.2003 06:00 5.4 C 100 % 1024.2 hPa 0.0 l/m 1.2 km/h (1 Bft) O-SO 5.4 C 5.3 C
01.05.2003 07:00 6.8 C 100 % 1024.2 hPa 0.0 l/m 2.4 km/h (1 Bft) SO 6.8 C 6.4 C
01.05.2003 08:00 8.5 C 100 % 1024.8 hPa 0.0 l/m 0.2 km/h (0 Bft) SO 8.5 C 8.5 C
01.05.2003 09:00 10.8 C 93 % 1025.2 hPa 0.0 l/m 3.7 km/h (1 Bft) W-SW 9.7 C 10.8 C
01.05.2003 10:00 12.4 C 73 % 1025.2 hPa 0.0 l/m 2.7 km/h (1 Bft) W-NW 7.7 C 12.4 C
01.05.2003 11:00 14.2 C 62 % 1024.9 hPa 0.0 l/m 4.4 km/h (1 Bft) W-NW 7.0 C 14.2 C
01.05.2003 12:00 16.2 C 53 % 1024.2 hPa 0.0 l/m 11.2 km/h (2 Bft) S 6.5 C 16.2 C
01.05.2003 13:00 17.5 C 46 % 1023.2 hPa 0.0 l/m 8.1 km/h (2 Bft) W-NW 5.8 C 17.5 C
01.05.2003 14:00 18.1 C 44 % 1022.7 hPa 0.0 l/m 8.4 km/h (2 Bft) NW 5.5 C 18.1 C
01.05.2003 15:00 18.5 C 41 % 1022.1 hPa 0.0 l/m 4.6 km/h (1 Bft) NW 5.0 C 18.5 C
01.05.2003 16:00 18.9 C 40 % 1021.7 hPa 0.0 l/m 8.3 km/h (2 Bft) W-NW 5.0 C 18.9 C
01.05.2003 17:00 18.5 C 41 % 1021.1 hPa 0.0 l/m 11.9 km/h (2 Bft) W-NW 4.9 C 18.5 C
01.05.2003 18:00 17.6 C 44 % 1021.1 hPa 0.0 l/m 10.0 km/h (2 Bft) W-NW 5.3 C 17.6 C
01.05.2003 19:00 16.4 C 48 % 1021.1 hPa 0.0 l/m 1.7 km/h (1 Bft) W-NW 5.5 C 16.4 C
01.05.2003 20:00 14.1 C 59 % 1021.1 hPa 0.0 l/m 0.0 km/h (0 Bft) W 6.1 C 14.1 C
01.05.2003 21:00 12.3 C 72 % 1021.1 hPa 0.0 l/m 5.6 km/h (1 Bft) O-SO 7.4 C 12.3 C
01.05.2003 22:00 10.6 C 79 % 1021.1 hPa 0.0 l/m 2.6 km/h (1 Bft) O-SO 7.1 C 10.6 C
01.05.2003 23:00 9.2 C 83 % 1021.1 hPa 0.0 l/m 0.5 km/h (0 Bft) O-SO 6.6 C 9.2 C
02.05.2003 00:00 8.0 C 89 % 1021.1 hPa 0.0 l/m 1.1 km/h (1 Bft) O-SO 6.3 C 7.9 C
02.05.2003 01:00 7.1 C 95 % 1020.1 hPa 0.0 l/m 0.9 km/h (0 Bft) O-SO 6.3 C 7.1 C
02.05.2003 02:00 6.4 C 98 % 1020.0 hPa 0.0 l/m 1.7 km/h (1 Bft) O-SO 6.1 C 6.1 C
02.05.2003 03:00 5.6 C 99 % 1020.0 hPa 0.0 l/m 2.5 km/h (1 Bft) O-SO 5.5 C 5.5 C
02.05.2003 04:00 4.9 C 100 % 1020.0 hPa 0.0 l/m 1.8 km/h (1 Bft) O-SO 4.9 C 4.7 C
02.05.2003 05:00 4.4 C 100 % 1019.1 hPa 0.0 l/m 0.1 km/h (0 Bft) O-SO 4.4 C 4.4 C
02.05.2003 06:00 4.4 C 100 % 1019.0 hPa 0.0 l/m 1.0 km/h (0 Bft) O-SO 4.4 C 4.3 C
02.05.2003 07:00 5.6 C 100 % 1019.0 hPa 0.0 l/m 0.0 km/h (0 Bft) N 5.6 C 5.6 C
02.05.2003 08:00 7.8 C 88 % 1018.3 hPa 0.0 l/m 0.9 km/h (0 Bft) W-NW 5.9 C 7.7 C
02.05.2003 09:00 10.3 C 71 % 1018.0 hPa 0.0 l/m 0.7 km/h (0 Bft) W-NW 5.3 C 10.3 C
02.05.2003 10:00 13.3 C 59 % 1017.8 hPa 0.0 l/m 4.4 km/h (1 Bft) W-NW 5.5 C 13.3 C
02.05.2003 11:00 14.9 C 57 % 1017.2 hPa 0.0 l/m 0.1 km/h (0 Bft) N 6.3 C 14.9 C
02.05.2003 12:00 15.2 C 61 % 1017.4 hPa 0.0 l/m 1.8 km/h (1 Bft) W-SW 7.7 C 15.2 C
02.05.2003 13:00 16.8 C 58 % 1017.4 hPa 0.0 l/m 4.9 km/h (1 Bft) O-SO 8.3 C 16.8 C
02.05.2003 14:00 17.6 C 56 % 1016.9 hPa 0.0 l/m 3.3 km/h (1 Bft) O-SO 8.7 C 17.6 C
02.05.2003 15:00 16.8 C 57 % 1016.9 hPa 0.0 l/m 0.4 km/h (0 Bft) SO 8.2 C 16.8 C
02.05.2003 16:00 18.4 C 52 % 1016.8 hPa 0.0 l/m 0.7 km/h (0 Bft) W-NW 8.2 C 18.4 C
02.05.2003 17:00 18.0 C 51 % 1015.9 hPa 0.0 l/m 0.3 km/h (0 Bft) NO 7.8 C 18.0 C
02.05.2003 18:00 18.8 C 53 % 1015.4 hPa 0.0 l/m 1.2 km/h (1 Bft) W-NW 9.0 C 18.8 C
02.05.2003 19:00 16.9 C 62 % 1014.9 hPa 0.0 l/m 1.8 km/h (1 Bft) O-SO 9.6 C 16.9 C
02.05.2003 20:00 13.9 C 68 % 1016.9 hPa 0.0 l/m 29.1 km/h (5 Bft) NW 8.1 C 13.9 C
02.05.2003 21:00 12.5 C 81 % 1017.7 hPa 0.3 l/m 0.0 km/h (0 Bft) O 9.4 C 12.5 C
02.05.2003 22:00 11.6 C 96 % 1018.2 hPa 0.6 l/m 3.7 km/h (1 Bft) O-SO 11.0 C 11.6 C
02.05.2003 23:00 11.6 C 100 % 1019.0 hPa 1.5 l/m 0.5 km/h (0 Bft) W-SW 11.6 C 11.6 C
03.05.2003 00:00 11.5 C 99 % 1019.5 hPa 1.5 l/m 23.1 km/h (4 Bft) NW 11.4 C 11.5 C
03.05.2003 01:00 10.8 C 98 % 1020.0 hPa 0.3 l/m 17.1 km/h (3 Bft) NW 10.6 C 10.8 C
03.05.2003 02:00 9.8 C 98 % 1020.9 hPa 0.3 l/m 8.9 km/h (2 Bft) W-NW 9.5 C 8.8 C
03.05.2003 03:00 9.2 C 99 % 1021.7 hPa 0.0 l/m 4.4 km/h (1 Bft) W-SW 9.1 C 8.7 C
03.05.2003 04:00 9.0 C 99 % 1022.6 hPa 0.3 l/m 6.0 km/h (2 Bft) W-NW 8.9 C 8.3 C
03.05.2003 05:00 9.3 C 94 % 1023.3 hPa 0.0 l/m 16.1 km/h (3 Bft) W-NW 8.4 C 7.1 C
03.05.2003 06:00 8.7 C 91 % 1024.3 hPa 0.0 l/m 11.1 km/h (2 Bft) W-NW 7.2 C 7.2 C
03.05.2003 07:00 8.9 C 82 % 1025.2 hPa 0.0 l/m 16.3 km/h (3 Bft) W-NW 5.9 C 6.6 C
03.05.2003 08:00 10.1 C 71 % 1025.2 hPa 0.0 l/m 21.4 km/h (4 Bft) W-NW 5.1 C 9.3 C
03.05.2003 09:00 10.7 C 64 % 1026.0 hPa 0.0 l/m 27.7 km/h (4 Bft) W-NW 4.2 C 10.7 C
03.05.2003 10:00 11.7 C 54 % 1026.3 hPa 0.0 l/m 25.5 km/h (4 Bft) W-NW 2.6 C 11.7 C
03.05.2003 11:00 13.0 C 50 % 1026.5 hPa 0.0 l/m 21.8 km/h (4 Bft) NW 2.8 C 13.0 C
03.05.2003 12:00 14.4 C 48 % 1026.3 hPa 0.0 l/m 19.6 km/h (3 Bft) NW 3.4 C 14.4 C
03.05.2003 13:00 15.8 C 44 % 1026.3 hPa 0.0 l/m 10.8 km/h (2 Bft) W-NW 3.6 C 15.8 C
03.05.2003 14:00 17.5 C 39 % 1026.3 hPa 0.0 l/m 11.6 km/h (2 Bft) W-NW 3.3 C 17.5 C
03.05.2003 15:00 18.6 C 33 % 1026.2 hPa 0.0 l/m 15.2 km/h (3 Bft) NW 2.0 C 18.6 C
03.05.2003 16:00 18.8 C 32 % 1025.2 hPa 0.0 l/m 14.1 km/h (3 Bft) W-NW 1.8 C 18.8 C
03.05.2003 17:00 18.8 C 33 % 1025.2 hPa 0.0 l/m 3.7 km/h (1 Bft) W-NW 2.3 C 18.8 C
03.05.2003 18:00 18.3 C 32 % 1024.8 hPa 0.0 l/m 0.7 km/h (0 Bft) W-NW 1.3 C 18.3 C
03.05.2003 19:00 17.5 C 34 % 1024.8 hPa 0.0 l/m 0.2 km/h (0 Bft) N-NW 1.4 C 17.5 C
03.05.2003 20:00 13.8 C 46 % 1024.8 hPa 0.0 l/m 3.0 km/h (1 Bft) O-SO 2.1 C 13.8 C
03.05.2003 21:00 10.5 C 62 % 1025.2 hPa 0.0 l/m 4.5 km/h (1 Bft) O-SO 3.5 C 10.5 C
03.05.2003 22:00 8.6 C 76 % 1025.2 hPa 0.0 l/m 2.1 km/h (1 Bft) O-SO 4.5 C 8.4 C
03.05.2003 23:00 7.3 C 84 % 1025.1 hPa 0.0 l/m 0.0 km/h (0 Bft) N 4.7 C 7.3 C
04.05.2003 00:00 6.4 C 88 % 1025.2 hPa 0.0 l/m 0.2 km/h (0 Bft) O 4.5 C 6.4 C
04.05.2003 01:00 5.3 C 92 % 1024.8 hPa 0.0 l/m 0.1 km/h (0 Bft) N 4.2 C 5.3 C
04.05.2003 02:00 4.8 C 94 % 1024.2 hPa 0.0 l/m 0.0 km/h (0 Bft) N 3.9 C 4.8 C
04.05.2003 03:00 4.1 C 96 % 1024.2 hPa 0.0 l/m 0.0 km/h (0 Bft) N 3.5 C 4.1 C
04.05.2003 04:00 3.6 C 98 % 1024.2 hPa 0.0 l/m 0.8 km/h (0 Bft) O 3.2 C 3.5 C
04.05.2003 05:00 3.1 C 99 % 1024.2 hPa 0.0 l/m 0.0 km/h (0 Bft) O 3.0 C 3.1 C
04.05.2003 06:00 2.9 C 100 % 1024.2 hPa 0.0 l/m 0.8 km/h (0 Bft) O 2.8 C 2.9 C
04.05.2003 07:00 4.4 C 98 % 1024.2 hPa 0.0 l/m 0.0 km/h (0 Bft) N 4.1 C 4.4 C
04.05.2003 08:00 6.9 C 80 % 1024.2 hPa 0.0 l/m 0.0 km/h (0 Bft) N 3.7 C 6.9 C
04.05.2003 09:00 10.1 C 70 % 1024.2 hPa 0.0 l/m 0.9 km/h (0 Bft) W-NW 4.8 C 10.1 C
04.05.2003 10:00 13.4 C 54 % 1024.2 hPa 0.0 l/m 1.1 km/h (0 Bft) NW 4.1 C 13.4 C
04.05.2003 11:00 16.2 C 47 % 1023.4 hPa 0.0 l/m 3.1 km/h (1 Bft) O-SO 4.8 C 16.2 C
04.05.2003 12:00 19.2 C 45 % 1023.0 hPa 0.0 l/m 4.7 km/h (1 Bft) O-SO 6.8 C 19.2 C
04.05.2003 13:00 22.3 C 40 % 1022.0 hPa 0.0 l/m 4.0 km/h (1 Bft) O-SO 7.8 C 22.3 C
04.05.2003 14:00 24.5 C 33 % 1021.0 hPa 0.0 l/m 3.2 km/h (1 Bft) O-SO 7.3 C 24.5 C
04.05.2003 15:00 25.5 C 33 % 1020.0 hPa 0.0 l/m 2.5 km/h (1 Bft) W-NW 7.8 C 25.5 C
04.05.2003 16:00 26.1 C 30 % 1019.2 hPa 0.0 l/m 8.8 km/h (2 Bft) O-SO 7.0 C 26.1 C
04.05.2003 17:00 26.1 C 32 % 1018.5 hPa 0.0 l/m 8.7 km/h (2 Bft) O-SO 7.9 C 26.1 C
04.05.2003 18:00 25.3 C 34 % 1018.0 hPa 0.0 l/m 6.6 km/h (2 Bft) O-SO 8.4 C 25.3 C
04.05.2003 19:00 23.7 C 38 % 1017.1 hPa 0.0 l/m 5.4 km/h (1 Bft) O-SO 8.5 C 23.7 C
04.05.2003 20:00 20.1 C 49 % 1017.2 hPa 0.0 l/m 3.9 km/h (1 Bft) O-SO 9.0 C 20.1 C
04.05.2003 21:00 16.9 C 57 % 1018.0 hPa 0.0 l/m 0.0 km/h (0 Bft) N 8.4 C 16.9 C
04.05.2003 22:00 13.8 C 71 % 1018.0 hPa 0.0 l/m 1.5 km/h (1 Bft) O-SO 8.6 C 13.8 C
04.05.2003 23:00 12.6 C 77 % 1018.0 hPa 0.0 l/m 2.2 km/h (1 Bft) O-SO 8.7 C 12.6 C
Min-Datum _ 04.05.03 28.04.03 28.04.03 - 28.04.03 - 03.05.03 04.05.03
_ Min-Zeit 06:18 15:38 17:46 - 00:02 - 16:05 04:06
Minimum _ 2.5 C 25 % 1008.6 hPa - 0.0 km/h (0 Bft) - -0.9 C 2.2 C
Max-Datum _ 04.05.03 28.04.03 03.05.03 30.04.03 02.05.03 - 30.04.03 04.05.03
_ Max-Zeit 17:09 03:38 11:23 18:00 20:10 - 15:23 17:09
Maximum _ 26.4 C 100 % 1027.3 hPa 2.4 l/m 56.1 km/h
NW (7 Bft)
- 14.2 C 26.4 C
Durchschnitt _ 13.2 C 73 % 1018.5 hPa #19.2 l/m 4.8 km/h (1 Bft) O-SO 7.5 C 13.1 C

Durchschnitt Minimum Temp.12.2 C
Durchschnitt Maximum Temp.14.1 C
© Kaiko 2003